sensor_id;sensor_type;location;lat;lon;timestamp;pressure;altitude;pressure_sealevel;temperature;humidity
27429;BME280;14881;48.092;11.574;2023-04-24T00:00:31;94599.72;;;9.08;100.00
27429;BME280;14881;48.092;11.574;2023-04-24T00:02:59;94597.59;;;9.05;100.00
27429;BME280;14881;48.092;11.574;2023-04-24T00:05:27;94599.22;;;9.06;100.00
27429;BME280;14881;48.092;11.574;2023-04-24T00:07:56;94589.25;;;9.01;100.00
27429;BME280;14881;48.092;11.574;2023-04-24T00:10:24;94593.59;;;9.02;100.00
27429;BME280;14881;48.092;11.574;2023-04-24T00:12:51;94587.78;;;8.95;100.00
27429;BME280;14881;48.092;11.574;2023-04-24T00:15:19;94591.38;;;8.91;100.00
27429;BME280;14881;48.092;11.574;2023-04-24T00:17:47;94586.28;;;8.89;100.00
27429;BME280;14881;48.092;11.574;2023-04-24T00:20:15;94583.25;;;8.91;100.00
27429;BME280;14881;48.092;11.574;2023-04-24T00:22:43;94582.25;;;8.87;100.00
27429;BME280;14881;48.092;11.574;2023-04-24T00:25:12;94591.09;;;8.92;100.00
27429;BME280;14881;48.092;11.574;2023-04-24T00:27:41;94587.59;;;8.92;100.00
27429;BME280;14881;48.092;11.574;2023-04-24T00:30:10;94577.25;;;8.94;100.00
27429;BME280;14881;48.092;11.574;2023-04-24T00:32:37;94586.06;;;8.86;100.00
27429;BME280;14881;48.092;11.574;2023-04-24T00:35:06;94586.38;;;8.84;100.00
27429;BME280;14881;48.092;11.574;2023-04-24T00:37:34;94587.88;;;8.90;100.00
27429;BME280;14881;48.092;11.574;2023-04-24T00:40:02;94584.47;;;8.85;100.00
27429;BME280;14881;48.092;11.574;2023-04-24T00:42:31;94583.66;;;8.84;100.00
27429;BME280;14881;48.092;11.574;2023-04-24T00:45:00;94580.47;;;8.82;100.00
27429;BME280;14881;48.092;11.574;2023-04-24T00:47:28;94581.56;;;8.81;100.00
27429;BME280;14881;48.092;11.574;2023-04-24T00:49:56;94572.66;;;8.81;100.00
27429;BME280;14881;48.092;11.574;2023-04-24T00:52:24;94577.25;;;8.80;100.00
27429;BME280;14881;48.092;11.574;2023-04-24T00:54:52;94575.66;;;8.79;100.00
27429;BME280;14881;48.092;11.574;2023-04-24T00:57:20;94572.66;;;8.81;100.00
27429;BME280;14881;48.092;11.574;2023-04-24T00:59:49;94579.75;;;8.77;100.00
27429;BME280;14881;48.092;11.574;2023-04-24T01:02:17;94573.53;;;8.76;100.00
27429;BME280;14881;48.092;11.574;2023-04-24T01:04:46;94576.25;;;8.76;100.00
27429;BME280;14881;48.092;11.574;2023-04-24T01:07:14;94575.84;;;8.69;100.00
27429;BME280;14881;48.092;11.574;2023-04-24T01:09:41;94572.25;;;8.73;100.00
27429;BME280;14881;48.092;11.574;2023-04-24T01:12:09;94570.41;;;8.69;100.00
27429;BME280;14881;48.092;11.574;2023-04-24T01:14:37;94572.31;;;8.68;100.00
27429;BME280;14881;48.092;11.574;2023-04-24T01:17:06;94572.16;;;8.65;100.00
27429;BME280;14881;48.092;11.574;2023-04-24T01:19:35;94578.97;;;8.62;100.00
27429;BME280;14881;48.092;11.574;2023-04-24T01:22:08;94567.31;;;8.62;100.00
27429;BME280;14881;48.092;11.574;2023-04-24T01:24:38;94558.78;;;8.55;100.00
27429;BME280;14881;48.092;11.574;2023-04-24T01:27:06;94566.19;;;8.49;100.00
27429;BME280;14881;48.092;11.574;2023-04-24T01:29:34;94565.38;;;8.49;100.00
27429;BME280;14881;48.092;11.574;2023-04-24T01:32:02;94555.38;;;8.49;100.00
27429;BME280;14881;48.092;11.574;2023-04-24T01:34:30;94554.28;;;8.50;100.00
27429;BME280;14881;48.092;11.574;2023-04-24T01:36:58;94560.31;;;8.47;100.00
27429;BME280;14881;48.092;11.574;2023-04-24T01:39:27;94556.59;;;8.43;100.00
27429;BME280;14881;48.092;11.574;2023-04-24T01:41:55;94560.38;;;8.42;100.00
27429;BME280;14881;48.092;11.574;2023-04-24T01:44:23;94560.97;;;8.39;100.00
27429;BME280;14881;48.092;11.574;2023-04-24T01:46:51;94561.56;;;8.36;100.00
27429;BME280;14881;48.092;11.574;2023-04-24T01:49:20;94559.16;;;8.34;100.00
27429;BME280;14881;48.092;11.574;2023-04-24T01:51:48;94562.38;;;8.36;100.00
27429;BME280;14881;48.092;11.574;2023-04-24T01:54:16;94566.25;;;8.30;100.00
27429;BME280;14881;48.092;11.574;2023-04-24T01:56:45;94566.84;;;8.27;100.00
27429;BME280;14881;48.092;11.574;2023-04-24T01:59:15;94565.75;;;8.28;100.00
27429;BME280;14881;48.092;11.574;2023-04-24T02:01:44;94567.44;;;8.24;100.00
27429;BME280;14881;48.092;11.574;2023-04-24T02:04:12;94559.03;;;8.26;100.00
27429;BME280;14881;48.092;11.574;2023-04-24T02:06:41;94556.91;;;8.23;100.00
27429;BME280;14881;48.092;11.574;2023-04-24T02:09:09;94558.53;;;8.24;100.00
27429;BME280;14881;48.092;11.574;2023-04-24T02:11:37;94562.53;;;8.26;100.00
27429;BME280;14881;48.092;11.574;2023-04-24T02:14:06;94558.22;;;8.25;100.00
27429;BME280;14881;48.092;11.574;2023-04-24T02:16:33;94555.22;;;8.27;100.00
27429;BME280;14881;48.092;11.574;2023-04-24T02:19:02;94548.72;;;8.28;100.00
27429;BME280;14881;48.092;11.574;2023-04-24T02:21:30;94553.31;;;8.27;100.00
27429;BME280;14881;48.092;11.574;2023-04-24T02:23:59;94548.50;;;8.24;100.00
27429;BME280;14881;48.092;11.574;2023-04-24T02:26:27;94551.13;;;8.29;100.00
27429;BME280;14881;48.092;11.574;2023-04-24T02:29:06;94551.44;;;8.28;100.00
27429;BME280;14881;48.092;11.574;2023-04-24T02:31:33;94546.81;;;8.28;100.00
27429;BME280;14881;48.092;11.574;2023-04-24T02:34:01;94553.84;;;8.29;100.00
27429;BME280;14881;48.092;11.574;2023-04-24T02:36:29;94547.69;;;8.24;100.00
27429;BME280;14881;48.092;11.574;2023-04-24T02:38:57;94548.72;;;8.28;100.00
27429;BME280;14881;48.092;11.574;2023-04-24T02:41:25;94549.59;;;8.23;100.00
27429;BME280;14881;48.092;11.574;2023-04-24T02:43:57;94552.59;;;8.22;100.00
27429;BME280;14881;48.092;11.574;2023-04-24T02:46:26;94551.00;;;8.21;100.00
27429;BME280;14881;48.092;11.574;2023-04-24T02:48:54;94554.22;;;8.23;100.00
27429;BME280;14881;48.092;11.574;2023-04-24T02:51:22;94564.44;;;8.26;100.00
27429;BME280;14881;48.092;11.574;2023-04-24T02:53:49;94557.22;;;8.21;100.00
27429;BME280;14881;48.092;11.574;2023-04-24T02:56:17;94558.59;;;8.19;100.00
27429;BME280;14881;48.092;11.574;2023-04-24T02:58:45;94549.69;;;8.18;100.00
27429;BME280;14881;48.092;11.574;2023-04-24T03:01:12;94554.28;;;8.18;100.00
27429;BME280;14881;48.092;11.574;2023-04-24T03:03:41;94555.50;;;8.12;100.00
27429;BME280;14881;48.092;11.574;2023-04-24T03:06:09;94553.09;;;8.10;100.00
27429;BME280;14881;48.092;11.574;2023-04-24T03:08:37;94566.31;;;8.12;100.00
27429;BME280;14881;48.092;11.574;2023-04-24T03:11:08;94558.81;;;8.09;100.00
27429;BME280;14881;48.092;11.574;2023-04-24T03:13:36;94558.81;;;8.09;100.00
27429;BME280;14881;48.092;11.574;2023-04-24T03:16:04;94558.00;;;8.08;100.00
27429;BME280;14881;48.092;11.574;2023-04-24T03:18:32;94563.69;;;8.07;100.00
27429;BME280;14881;48.092;11.574;2023-04-24T03:21:02;94563.41;;;8.08;100.00
27429;BME280;14881;48.092;11.574;2023-04-24T03:23:29;94568.53;;;8.10;100.00
27429;BME280;14881;48.092;11.574;2023-04-24T03:25:57;94566.13;;;8.08;100.00
27429;BME280;14881;48.092;11.574;2023-04-24T03:28:25;94563.69;;;8.07;100.00
27429;BME280;14881;48.092;11.574;2023-04-24T03:30:53;94558.88;;;8.03;100.00
27429;BME280;14881;48.092;11.574;2023-04-24T03:33:20;94567.22;;;8.07;100.00
27429;BME280;14881;48.092;11.574;2023-04-24T03:35:48;94567.50;;;8.06;100.00
27429;BME280;14881;48.092;11.574;2023-04-24T03:38:17;94572.69;;;8.02;100.00
27429;BME280;14881;48.092;11.574;2023-04-24T03:40:45;94569.69;;;8.03;100.00
27429;BME280;14881;48.092;11.574;2023-04-24T03:43:13;94568.31;;;8.06;100.00
27429;BME280;14881;48.092;11.574;2023-04-24T03:45:40;94563.69;;;8.07;100.00
27429;BME280;14881;48.092;11.574;2023-04-24T03:48:08;94574.00;;;8.04;100.00
27429;BME280;14881;48.092;11.574;2023-04-24T03:50:36;94563.19;;;8.04;100.00
27429;BME280;14881;48.092;11.574;2023-04-24T03:53:13;94564.59;;;8.02;100.00
27429;BME280;14881;48.092;11.574;2023-04-24T03:55:42;94560.56;;;7.99;100.00
27429;BME280;14881;48.092;11.574;2023-04-24T03:58:10;94557.84;;;7.99;100.00
27429;BME280;14881;48.092;11.574;2023-04-24T04:00:40;94558.25;;;7.93;100.00
27429;BME280;14881;48.092;11.574;2023-04-24T04:03:07;94550.38;;;7.96;100.00
27429;BME280;14881;48.092;11.574;2023-04-24T04:05:35;94556.34;;;7.93;100.00
27429;BME280;14881;48.092;11.574;2023-04-24T04:08:03;94556.94;;;7.90;100.00
27429;BME280;14881;48.092;11.574;2023-04-24T04:10:31;94550.94;;;7.93;100.00
27429;BME280;14881;48.092;11.574;2023-04-24T04:13:00;94559.25;;;7.97;100.00
27429;BME280;14881;48.092;11.574;2023-04-24T04:15:27;94556.34;;;7.93;100.00
27429;BME280;14881;48.092;11.574;2023-04-24T04:17:55;94543.03;;;7.97;100.00
27429;BME280;14881;48.092;11.574;2023-04-24T04:20:23;94554.25;;;7.90;100.00
27429;BME280;14881;48.092;11.574;2023-04-24T04:22:51;94547.00;;;7.86;100.00
27429;BME280;14881;48.092;11.574;2023-04-24T04:25:18;94557.47;;;7.92;100.00
27429;BME280;14881;48.092;11.574;2023-04-24T04:27:46;94556.66;;;7.92;100.00
27429;BME280;14881;48.092;11.574;2023-04-24T04:30:16;94557.53;;;7.87;100.00
27429;BME280;14881;48.092;11.574;2023-04-24T04:32:44;94554.25;;;7.90;100.00
27429;BME280;14881;48.092;11.574;2023-04-24T04:35:12;94555.03;;;7.91;100.00
27429;BME280;14881;48.092;11.574;2023-04-24T04:37:40;94566.16;;;7.89;100.00
27429;BME280;14881;48.092;11.574;2023-04-24T04:40:08;94563.97;;;7.91;100.00
27429;BME280;14881;48.092;11.574;2023-04-24T04:42:38;94566.97;;;7.90;100.00
27429;BME280;14881;48.092;11.574;2023-04-24T04:45:07;94570.47;;;7.90;100.00
27429;BME280;14881;48.092;11.574;2023-04-24T04:47:43;94565.56;;;7.92;100.00
27429;BME280;14881;48.092;11.574;2023-04-24T04:50:13;94570.56;;;7.99;100.00
27429;BME280;14881;48.092;11.574;2023-04-24T04:52:41;94571.19;;;7.96;100.00
27429;BME280;14881;48.092;11.574;2023-04-24T04:55:08;94573.91;;;7.96;100.00
27429;BME280;14881;48.092;11.574;2023-04-24T04:57:36;94570.28;;;8.00;100.00
27429;BME280;14881;48.092;11.574;2023-04-24T05:00:05;94583.59;;;7.97;100.00
27429;BME280;14881;48.092;11.574;2023-04-24T05:02:36;94583.31;;;7.98;100.00
27429;BME280;14881;48.092;11.574;2023-04-24T05:05:07;94577.31;;;8.01;100.00
27429;BME280;14881;48.092;11.574;2023-04-24T05:07:35;94580.72;;;8.07;100.00
27429;BME280;14881;48.092;11.574;2023-04-24T05:10:03;94585.84;;;8.09;100.00
27429;BME280;14881;48.092;11.574;2023-04-24T05:12:31;94584.97;;;8.13;100.00
27429;BME280;14881;48.092;11.574;2023-04-24T05:15:02;94582.56;;;8.12;100.00
27429;BME280;14881;48.092;11.574;2023-04-24T05:17:30;94586.34;;;8.11;100.00
27429;BME280;14881;48.092;11.574;2023-04-24T05:19:58;94588.56;;;8.09;100.00
27429;BME280;14881;48.092;11.574;2023-04-24T05:22:27;94589.25;;;8.14;100.00
27429;BME280;14881;48.092;11.574;2023-04-24T05:24:54;94605.69;;;8.18;100.00
27429;BME280;14881;48.092;11.574;2023-04-24T05:27:24;94599.69;;;8.21;100.00
27429;BME280;14881;48.092;11.574;2023-04-24T05:29:52;94600.28;;;8.18;100.00
27429;BME280;14881;48.092;11.574;2023-04-24T05:32:20;94594.28;;;8.21;100.00
27429;BME280;14881;48.092;11.574;2023-04-24T05:34:48;94595.09;;;8.21;100.00
27429;BME280;14881;48.092;11.574;2023-04-24T05:37:18;94593.03;;;8.32;100.00
27429;BME280;14881;48.092;11.574;2023-04-24T05:39:47;94589.00;;;8.29;100.00
27429;BME280;14881;48.092;11.574;2023-04-24T05:42:15;94599.84;;;8.29;100.00
27429;BME280;14881;48.092;11.574;2023-04-24T05:44:42;94591.13;;;8.32;100.00
27429;BME280;14881;48.092;11.574;2023-04-24T05:47:13;94595.22;;;8.30;100.00
27429;BME280;14881;48.092;11.574;2023-04-24T05:49:41;94596.31;;;8.29;100.00
27429;BME280;14881;48.092;11.574;2023-04-24T05:52:09;94595.53;;;8.28;100.00
27429;BME280;14881;48.092;11.574;2023-04-24T05:54:37;94591.63;;;8.34;100.00
27429;BME280;14881;48.092;11.574;2023-04-24T05:57:06;94599.38;;;8.41;100.00
27429;BME280;14881;48.092;11.574;2023-04-24T05:59:36;94604.41;;;8.48;100.00
27429;BME280;14881;48.092;11.574;2023-04-24T06:02:04;94598.81;;;8.58;100.00
27429;BME280;14881;48.092;11.574;2023-04-24T06:04:32;94608.63;;;8.67;100.00
27429;BME280;14881;48.092;11.574;2023-04-24T06:07:05;94592.59;;;8.71;100.00
27429;BME280;14881;48.092;11.574;2023-04-24T06:09:36;94592.00;;;8.74;100.00
27429;BME280;14881;48.092;11.574;2023-04-24T06:12:05;94597.81;;;8.81;100.00
27429;BME280;14881;48.092;11.574;2023-04-24T06:14:36;94601.72;;;8.89;100.00
27429;BME280;14881;48.092;11.574;2023-04-24T06:17:03;94596.31;;;8.89;100.00
27429;BME280;14881;48.092;11.574;2023-04-24T06:19:32;94600.72;;;8.85;100.00
27429;BME280;14881;48.092;11.574;2023-04-24T06:21:59;94596.50;;;8.92;100.00
27429;BME280;14881;48.092;11.574;2023-04-24T06:24:27;94592.41;;;8.95;100.00
27429;BME280;14881;48.092;11.574;2023-04-24T06:26:55;94594.59;;;8.93;100.00
27429;BME280;14881;48.092;11.574;2023-04-24T06:29:26;94601.22;;;9.00;100.00
27429;BME280;14881;48.092;11.574;2023-04-24T06:31:56;94596.91;;;8.99;100.00
27429;BME280;14881;48.092;11.574;2023-04-24T06:34:23;94603.91;;;9.00;100.00
27429;BME280;14881;48.092;11.574;2023-04-24T06:36:51;94605.22;;;9.03;100.00
27429;BME280;14881;48.092;11.574;2023-04-24T06:39:19;94605.84;;;9.14;100.00
27429;BME280;14881;48.092;11.574;2023-04-24T06:41:47;94599.38;;;9.23;100.00
27429;BME280;14881;48.092;11.574;2023-04-24T06:44:15;94603.69;;;9.38;100.00
27429;BME280;14881;48.092;11.574;2023-04-24T06:46:44;94608.09;;;9.48;100.00
27429;BME280;14881;48.092;11.574;2023-04-24T06:49:12;94605.34;;;9.61;100.00
27429;BME280;14881;48.092;11.574;2023-04-24T06:51:43;94608.34;;;9.60;100.00
27429;BME280;14881;48.092;11.574;2023-04-24T06:54:11;94602.13;;;9.59;100.00
27429;BME280;14881;48.092;11.574;2023-04-24T06:56:39;94604.84;;;9.59;100.00
27429;BME280;14881;48.092;11.574;2023-04-24T06:59:07;94604.28;;;9.71;100.00
27429;BME280;14881;48.092;11.574;2023-04-24T07:01:37;94597.25;;;9.84;100.00
27429;BME280;14881;48.092;11.574;2023-04-24T07:04:06;94597.28;;;9.92;100.00
27429;BME280;14881;48.092;11.574;2023-04-24T07:06:35;94595.81;;;10.08;100.00
27429;BME280;14881;48.092;11.574;2023-04-24T07:09:04;94600.63;;;10.11;100.00
27429;BME280;14881;48.092;11.574;2023-04-24T07:11:32;94597.31;;;10.15;100.00
27429;BME280;14881;48.092;11.574;2023-04-24T07:14:00;94589.28;;;10.09;100.00
27429;BME280;14881;48.092;11.574;2023-04-24T07:16:30;94597.50;;;10.18;100.00
27429;BME280;14881;48.092;11.574;2023-04-24T07:18:58;94609.03;;;10.24;100.00
27429;BME280;14881;48.092;11.574;2023-04-24T07:21:28;94610.59;;;10.38;100.00
27429;BME280;14881;48.092;11.574;2023-04-24T07:23:57;94605.72;;;10.58;100.00
27429;BME280;14881;48.092;11.574;2023-04-24T07:26:25;94608.38;;;10.71;100.00
27429;BME280;14881;48.092;11.574;2023-04-24T07:28:53;94610.81;;;10.81;100.00
27429;BME280;14881;48.092;11.574;2023-04-24T07:31:21;94609.16;;;11.03;100.00
27429;BME280;14881;48.092;11.574;2023-04-24T07:33:49;94608.84;;;11.13;100.00
27429;BME280;14881;48.092;11.574;2023-04-24T07:36:16;94611.06;;;11.11;100.00
27429;BME280;14881;48.092;11.574;2023-04-24T07:38:46;94613.72;;;10.94;100.00
27429;BME280;14881;48.092;11.574;2023-04-24T07:41:14;94615.94;;;10.83;100.00
27429;BME280;14881;48.092;11.574;2023-04-24T07:43:42;94624.03;;;10.74;100.00
27429;BME280;14881;48.092;11.574;2023-04-24T07:46:10;94625.59;;;10.67;100.00
27429;BME280;14881;48.092;11.574;2023-04-24T07:48:37;94627.22;;;10.68;100.00
27429;BME280;14881;48.092;11.574;2023-04-24T07:51:05;94618.34;;;10.85;100.00
27429;BME280;14881;48.092;11.574;2023-04-24T07:53:33;94626.25;;;11.03;100.00
27429;BME280;14881;48.092;11.574;2023-04-24T07:56:02;94625.63;;;11.06;100.00
27429;BME280;14881;48.092;11.574;2023-04-24T07:58:30;94629.84;;;11.21;100.00
27429;BME280;14881;48.092;11.574;2023-04-24T08:00:58;94620.63;;;11.39;100.00
27429;BME280;14881;48.092;11.574;2023-04-24T08:03:25;94627.78;;;11.35;100.00
27429;BME280;14881;48.092;11.574;2023-04-24T08:05:53;94630.38;;;11.40;100.00
27429;BME280;14881;48.092;11.574;2023-04-24T08:08:22;94635.03;;;11.40;100.00
27429;BME280;14881;48.092;11.574;2023-04-24T08:10:50;94630.09;;;11.59;100.00
27429;BME280;14881;48.092;11.574;2023-04-24T08:13:19;94623.38;;;11.65;100.00
27429;BME280;14881;48.092;11.574;2023-04-24T08:15:47;94623.16;;;11.36;100.00
27429;BME280;14881;48.092;11.574;2023-04-24T08:18:15;94630.03;;;11.25;100.00
27429;BME280;14881;48.092;11.574;2023-04-24T08:20:42;94634.78;;;11.19;100.00
27429;BME280;14881;48.092;11.574;2023-04-24T08:23:11;94635.41;;;11.16;100.00
27429;BME280;14881;48.092;11.574;2023-04-24T08:25:39;94637.75;;;11.00;100.00
27429;BME280;14881;48.092;11.574;2023-04-24T08:28:08;94645.53;;;10.93;100.00
27429;BME280;14881;48.092;11.574;2023-04-24T08:30:37;94650.84;;;10.98;100.00
27429;BME280;14881;48.092;11.574;2023-04-24T08:33:05;94646.34;;;10.94;100.00
27429;BME280;14881;48.092;11.574;2023-04-24T08:35:33;94659.13;;;10.93;100.00
27429;BME280;14881;48.092;11.574;2023-04-24T08:38:01;94664.06;;;10.91;100.00
27429;BME280;14881;48.092;11.574;2023-04-24T08:40:33;94678.53;;;10.47;100.00
27429;BME280;14881;48.092;11.574;2023-04-24T08:43:03;94692.97;;;10.56;100.00
27429;BME280;14881;48.092;11.574;2023-04-24T08:45:32;94682.47;;;10.63;100.00
27429;BME280;14881;48.092;11.574;2023-04-24T08:48:02;94684.44;;;10.71;100.00
27429;BME280;14881;48.092;11.574;2023-04-24T08:50:42;94694.63;;;10.97;100.00
27429;BME280;14881;48.092;11.574;2023-04-24T08:53:11;94688.47;;;11.05;100.00
27429;BME280;14881;48.092;11.574;2023-04-24T08:55:39;94688.00;;;11.11;100.00
27429;BME280;14881;48.092;11.574;2023-04-24T08:58:08;94698.53;;;10.51;100.00
27429;BME280;14881;48.092;11.574;2023-04-24T09:00:38;94699.88;;;10.40;100.00
27429;BME280;14881;48.092;11.574;2023-04-24T09:03:13;94703.34;;;10.18;100.00
27429;BME280;14881;48.092;11.574;2023-04-24T09:05:42;94708.38;;;10.25;100.00
27429;BME280;14881;48.092;11.574;2023-04-24T09:08:13;94702.53;;;10.31;100.00
27429;BME280;14881;48.092;11.574;2023-04-24T09:10:41;94711.09;;;10.47;100.00
27429;BME280;14881;48.092;11.574;2023-04-24T09:13:10;94701.97;;;10.65;100.00
27429;BME280;14881;48.092;11.574;2023-04-24T09:15:39;94699.47;;;10.77;100.00
27429;BME280;14881;48.092;11.574;2023-04-24T09:18:07;94693.44;;;10.80;100.00
27429;BME280;14881;48.092;11.574;2023-04-24T09:20:56;94691.72;;;10.62;100.00
27429;BME280;14881;48.092;11.574;2023-04-24T09:23:26;94705.19;;;10.67;100.00
27429;BME280;14881;48.092;11.574;2023-04-24T09:25:55;94700.19;;;10.61;100.00
27429;BME280;14881;48.092;11.574;2023-04-24T09:28:27;94706.22;;;10.58;100.00
27429;BME280;14881;48.092;11.574;2023-04-24T09:31:05;94709.13;;;10.61;100.00
27429;BME280;14881;48.092;11.574;2023-04-24T09:33:36;94709.44;;;10.82;100.00
27429;BME280;14881;48.092;11.574;2023-04-24T09:36:08;94709.50;;;11.22;100.00
27429;BME280;14881;48.092;11.574;2023-04-24T09:38:37;94689.09;;;11.50;100.00
27429;BME280;14881;48.092;11.574;2023-04-24T09:41:06;94700.22;;;11.71;100.00
27429;BME280;14881;48.092;11.574;2023-04-24T09:43:35;94692.56;;;11.81;100.00
27429;BME280;14881;48.092;11.574;2023-04-24T09:46:05;94695.47;;;11.76;100.00
27429;BME280;14881;48.092;11.574;2023-04-24T09:48:34;94699.97;;;11.90;100.00
27429;BME280;14881;48.092;11.574;2023-04-24T09:51:03;94694.88;;;12.14;100.00
27429;BME280;14881;48.092;11.574;2023-04-24T09:53:34;94683.53;;;12.29;100.00
27429;BME280;14881;48.092;11.574;2023-04-24T09:56:06;94679.97;;;12.63;100.00
27429;BME280;14881;48.092;11.574;2023-04-24T09:58:35;94673.69;;;12.71;100.00
27429;BME280;14881;48.092;11.574;2023-04-24T10:01:03;94684.25;;;12.81;100.00
27429;BME280;14881;48.092;11.574;2023-04-24T10:03:34;94680.03;;;13.01;100.00
27429;BME280;14881;48.092;11.574;2023-04-24T10:06:03;94671.50;;;13.20;100.00
27429;BME280;14881;48.092;11.574;2023-04-24T10:08:39;94669.59;;;13.03;100.00
27429;BME280;14881;48.092;11.574;2023-04-24T10:11:08;94674.09;;;13.08;100.00
27429;BME280;14881;48.092;11.574;2023-04-24T10:13:39;94678.88;;;13.28;100.00
27429;BME280;14881;48.092;11.574;2023-04-24T10:16:07;94659.06;;;13.69;100.00
27429;BME280;14881;48.092;11.574;2023-04-24T10:18:35;94666.94;;;13.71;100.00
27429;BME280;14881;48.092;11.574;2023-04-24T10:21:04;94675.53;;;13.52;100.00
27429;BME280;14881;48.092;11.574;2023-04-24T10:23:32;94655.31;;;13.06;100.00
27429;BME280;14881;48.092;11.574;2023-04-24T10:26:02;94667.09;;;12.89;100.00
27429;BME280;14881;48.092;11.574;2023-04-24T10:28:31;94665.91;;;12.99;100.00
27429;BME280;14881;48.092;11.574;2023-04-24T10:31:00;94659.13;;;13.31;100.00
27429;BME280;14881;48.092;11.574;2023-04-24T10:33:29;94661.56;;;13.24;100.00
27429;BME280;14881;48.092;11.574;2023-04-24T10:35:58;94656.16;;;13.15;100.00
27429;BME280;14881;48.092;11.574;2023-04-24T10:38:28;94657.69;;;12.61;100.00
27429;BME280;14881;48.092;11.574;2023-04-24T10:41:08;94651.78;;;12.33;100.00
27429;BME280;14881;48.092;11.574;2023-04-24T10:43:40;94659.97;;;12.07;100.00
27429;BME280;14881;48.092;11.574;2023-04-24T10:46:08;94672.47;;;12.08;100.00
27429;BME280;14881;48.092;11.574;2023-04-24T10:48:42;94673.09;;;12.31;100.00
27429;BME280;14881;48.092;11.574;2023-04-24T10:51:14;94671.19;;;12.23;100.00
27429;BME280;14881;48.092;11.574;2023-04-24T10:53:42;94710.38;;;11.96;100.00
27429;BME280;14881;48.092;11.574;2023-04-24T10:56:11;94725.84;;;10.99;100.00
27429;BME280;14881;48.092;11.574;2023-04-24T10:58:41;94737.41;;;10.38;100.00
27429;BME280;14881;48.092;11.574;2023-04-24T11:01:23;94734.53;;;10.07;100.00
27429;BME280;14881;48.092;11.574;2023-04-24T11:03:55;94737.59;;;9.78;100.00
27429;BME280;14881;48.092;11.574;2023-04-24T11:06:28;94728.25;;;9.84;100.00
27429;BME280;14881;48.092;11.574;2023-04-24T11:09:04;94719.19;;;10.38;100.00
27429;BME280;14881;48.092;11.574;2023-04-24T11:11:36;94719.31;;;11.09;100.00
27429;BME280;14881;48.092;11.574;2023-04-24T11:14:07;94699.50;;;11.39;100.00
27429;BME280;14881;48.092;11.574;2023-04-24T11:16:38;94695.53;;;12.37;100.00
27429;BME280;14881;48.092;11.574;2023-04-24T11:19:08;94689.50;;;13.04;100.00
27429;BME280;14881;48.092;11.574;2023-04-24T11:21:42;94679.69;;;13.11;100.00
27429;BME280;14881;48.092;11.574;2023-04-24T11:24:32;94680.50;;;13.58;100.00
27429;BME280;14881;48.092;11.574;2023-04-24T11:27:13;94697.16;;;13.66;100.00
27429;BME280;14881;48.092;11.574;2023-04-24T11:29:43;94684.69;;;13.85;100.00
27429;BME280;14881;48.092;11.574;2023-04-24T11:32:19;94686.84;;;14.01;100.00
27429;BME280;14881;48.092;11.574;2023-04-24T11:34:52;94674.47;;;14.66;100.00
27429;BME280;14881;48.092;11.574;2023-04-24T11:37:21;94682.06;;;14.60;100.00
27429;BME280;14881;48.092;11.574;2023-04-24T11:40:00;94689.94;;;14.41;100.00
27429;BME280;14881;48.092;11.574;2023-04-24T11:42:35;94689.03;;;14.07;100.00
27429;BME280;14881;48.092;11.574;2023-04-24T11:45:07;94688.97;;;13.95;100.00
27429;BME280;14881;48.092;11.574;2023-04-24T11:47:35;94680.06;;;13.48;100.00
27429;BME280;14881;48.092;11.574;2023-04-24T11:50:05;94686.00;;;13.50;100.00
27429;BME280;14881;48.092;11.574;2023-04-24T11:52:37;94689.31;;;13.64;100.00
27429;BME280;14881;48.092;11.574;2023-04-24T11:55:07;94677.28;;;13.86;100.00
27429;BME280;14881;48.092;11.574;2023-04-24T11:57:36;94684.78;;;13.98;100.00
27429;BME280;14881;48.092;11.574;2023-04-24T12:00:05;94682.31;;;14.05;100.00
27429;BME280;14881;48.092;11.574;2023-04-24T12:02:34;94688.34;;;13.60;100.00
27429;BME280;14881;48.092;11.574;2023-04-24T12:05:06;94711.06;;;12.62;100.00
27429;BME280;14881;48.092;11.574;2023-04-24T12:07:40;94722.84;;;11.40;100.00
27429;BME280;14881;48.092;11.574;2023-04-24T12:10:11;94718.38;;;10.82;100.00
27429;BME280;14881;48.092;11.574;2023-04-24T12:12:40;94723.91;;;10.69;100.00
27429;BME280;14881;48.092;11.574;2023-04-24T12:15:11;94714.69;;;10.78;100.00
27429;BME280;14881;48.092;11.574;2023-04-24T12:17:41;94719.59;;;10.99;100.00
27429;BME280;14881;48.092;11.574;2023-04-24T12:20:10;94711.31;;;11.04;100.00
27429;BME280;14881;48.092;11.574;2023-04-24T12:22:46;94703.66;;;11.06;100.00
27429;BME280;14881;48.092;11.574;2023-04-24T12:25:15;94703.41;;;10.94;100.00
27429;BME280;14881;48.092;11.574;2023-04-24T12:27:44;94701.56;;;11.03;100.00
27429;BME280;14881;48.092;11.574;2023-04-24T12:30:14;94713.41;;;11.07;100.00
27429;BME280;14881;48.092;11.574;2023-04-24T12:32:45;94699.19;;;11.49;100.00
27429;BME280;14881;48.092;11.574;2023-04-24T12:35:13;94709.25;;;11.89;100.00
27429;BME280;14881;48.092;11.574;2023-04-24T12:37:42;94696.94;;;12.17;100.00
27429;BME280;14881;48.092;11.574;2023-04-24T12:40:13;94681.75;;;12.25;100.00
27429;BME280;14881;48.092;11.574;2023-04-24T12:42:44;94674.88;;;12.44;100.00
27429;BME280;14881;48.092;11.574;2023-04-24T12:45:13;94674.22;;;12.22;100.00
27429;BME280;14881;48.092;11.574;2023-04-24T12:47:42;94689.59;;;12.35;100.00
27429;BME280;14881;48.092;11.574;2023-04-24T12:50:12;94711.22;;;12.05;100.00
27429;BME280;14881;48.092;11.574;2023-04-24T12:52:40;94711.72;;;11.68;100.00
27429;BME280;14881;48.092;11.574;2023-04-24T12:55:08;94716.81;;;11.52;100.00